createdAt,value
2023-01-12T00:02:13.624Z,100799.81
2023-01-12T00:04:41.483Z,100793.25
2023-01-12T00:07:14.362Z,100801.84
2023-01-12T00:09:41.988Z,100800.66
2023-01-12T00:12:11.752Z,100793.03
2023-01-12T00:14:39.157Z,100787.13
2023-01-12T00:17:06.966Z,100802.06
2023-01-12T00:19:34.264Z,100802.28
2023-01-12T00:22:06.056Z,100811.69
2023-01-12T00:24:37.500Z,100801.31
2023-01-12T00:27:08.512Z,100814.66
2023-01-12T00:29:37.493Z,100840.03
2023-01-12T00:32:05.889Z,100824.88
2023-01-12T00:34:33.372Z,100817.31
2023-01-12T00:37:01.424Z,100813.84
2023-01-12T00:39:28.569Z,100817.31
2023-01-12T00:42:14.589Z,100800.78
2023-01-12T00:44:59.903Z,100805.69
2023-01-12T00:47:26.870Z,100806.13
2023-01-12T00:49:53.796Z,100793.38
2023-01-12T00:52:30.325Z,100808.13
2023-01-12T00:54:59.629Z,100788.28
2023-01-12T00:57:28.401Z,100788.28
2023-01-12T00:59:57.835Z,100776.81
2023-01-12T01:02:26.313Z,100776.22
2023-01-12T01:04:53.651Z,100789.75
2023-01-12T01:07:23.320Z,100774.97
2023-01-12T01:09:51.075Z,100776.00
2023-01-12T01:12:18.481Z,100766.81
2023-01-12T01:14:47.263Z,100797.75
2023-01-12T01:17:14.632Z,100777.84
2023-01-12T01:19:43.255Z,100782.94
2023-01-12T01:22:12.155Z,100769.63
2023-01-12T01:24:39.673Z,100777.63
2023-01-12T01:27:06.618Z,100766.75
2023-01-12T01:29:33.914Z,100774.50
2023-01-12T01:32:00.762Z,100786.00
2023-01-12T01:34:28.035Z,100787.78
2023-01-12T01:36:54.893Z,100776.31
2023-01-12T01:39:22.148Z,100780.59
2023-01-12T01:41:49.043Z,100771.34
2023-01-12T01:44:30.992Z,100746.53
2023-01-12T01:47:08.770Z,100749.00
2023-01-12T01:49:49.916Z,100743.06
2023-01-12T01:52:31.441Z,100747.72
2023-01-12T01:55:10.743Z,100752.47
2023-01-12T01:57:58.904Z,100746.09
2023-01-12T02:00:26.400Z,100737.06
2023-01-12T02:02:54.869Z,100741.38
2023-01-12T02:05:27.014Z,100734.97
2023-01-12T02:07:54.898Z,100736.75
2023-01-12T02:10:21.904Z,100740.22
2023-01-12T02:13:09.291Z,100726.06
2023-01-12T02:16:13.364Z,100723.78
2023-01-12T02:19:19.540Z,100724.75
2023-01-12T02:22:06.145Z,100710.16
2023-01-12T02:25:25.379Z,100712.00
2023-01-12T02:28:16.929Z,100708.44
2023-01-12T02:30:43.869Z,100712.97
2023-01-12T02:33:32.890Z,100716.81
2023-01-12T02:36:19.255Z,100707.53
2023-01-12T02:39:23.132Z,100707.75
2023-01-12T02:42:30.072Z,100712.97
2023-01-12T02:45:23.637Z,100702.00
2023-01-12T02:48:22.465Z,100695.72
2023-01-12T02:51:13.583Z,100697.94
2023-01-12T02:53:54.610Z,100704.16
2023-01-12T02:56:41.932Z,100695.56
2023-01-12T02:59:16.723Z,100693.78
2023-01-12T03:01:48.279Z,100700.97
2023-01-12T03:04:17.783Z,100689.88
2023-01-12T03:06:56.272Z,100691.75
2023-01-12T03:09:37.063Z,100683.41
2023-01-12T03:12:10.642Z,100679.69
2023-01-12T03:14:42.060Z,100670.31
2023-01-12T03:17:33.653Z,100683.56
2023-01-12T03:20:07.896Z,100678.66
2023-01-12T03:22:38.163Z,100669.03
2023-01-12T03:25:11.049Z,100656.75
2023-01-12T03:27:46.483Z,100659.56
2023-01-12T03:30:20.981Z,100668.19
2023-01-12T03:32:49.289Z,100658.34
2023-01-12T03:35:17.802Z,100658.34
2023-01-12T03:38:04.300Z,100669.94
2023-01-12T03:40:39.222Z,100657.44
2023-01-12T03:43:12.565Z,100660.31
2023-01-12T03:45:48.994Z,100673.00
2023-01-12T03:48:24.801Z,100673.78
2023-01-12T03:51:04.802Z,100666.47
2023-01-12T03:53:33.729Z,100668.09
2023-01-12T03:56:06.907Z,100664.53
2023-01-12T03:58:34.892Z,100669.06
2023-01-12T04:01:03.284Z,100678.00
2023-01-12T04:03:30.635Z,100656.69
2023-01-12T04:05:57.661Z,100670.25
2023-01-12T04:08:24.727Z,100649.94
2023-01-12T04:10:51.608Z,100649.63
2023-01-12T04:13:18.888Z,100644.91
2023-01-12T04:15:48.042Z,100657.91
2023-01-12T04:18:15.409Z,100629.63
2023-01-12T04:20:42.383Z,100640.41
2023-01-12T04:23:09.527Z,100637.88
2023-01-12T04:25:36.563Z,100635.22
2023-01-12T04:28:04.029Z,100633.50
2023-01-12T04:30:33.324Z,100633.63
2023-01-12T04:33:06.728Z,100623.19
2023-01-12T04:35:33.631Z,100619.03
2023-01-12T04:38:08.615Z,100608.94
2023-01-12T04:40:35.644Z,100615.22
2023-01-12T04:43:07.956Z,100597.16
2023-01-12T04:45:39.826Z,100615.22
2023-01-12T04:48:13.375Z,100589.75
2023-01-12T04:50:41.467Z,100599.38
2023-01-12T04:53:12.399Z,100608.56
2023-01-12T04:55:41.831Z,100605.88
2023-01-12T04:58:09.559Z,100598.00
2023-01-12T05:00:36.633Z,100604.16
2023-01-12T05:03:03.637Z,100593.72
2023-01-12T05:05:33.631Z,100602.22
2023-01-12T05:08:21.925Z,100592.56
2023-01-12T05:10:54.674Z,100601.75
2023-01-12T05:13:23.371Z,100584.34
2023-01-12T05:15:50.310Z,100593.88
2023-01-12T05:18:17.247Z,100589.00
2023-01-12T05:20:44.509Z,100586.22
2023-01-12T05:23:11.356Z,100588.19
2023-01-12T05:25:38.442Z,100585.06
2023-01-12T05:28:05.419Z,100574.75
2023-01-12T05:30:32.741Z,100581.47
2023-01-12T05:32:59.829Z,100590.19
2023-01-12T05:35:27.027Z,100568.47
2023-01-12T05:37:57.115Z,100564.06
2023-01-12T05:40:24.573Z,100562.44
2023-01-12T05:43:11.104Z,100570.31
2023-01-12T05:45:38.148Z,100561.03
2023-01-12T05:48:05.384Z,100554.06
2023-01-12T05:50:32.539Z,100563.22
2023-01-12T05:53:10.366Z,100565.78
2023-01-12T05:55:38.810Z,100549.53
2023-01-12T05:58:06.341Z,100557.66
2023-01-12T06:00:33.231Z,100560.78
2023-01-12T06:03:02.860Z,100559.28
2023-01-12T06:05:29.768Z,100558.13
2023-01-12T06:07:56.747Z,100555.22
2023-01-12T06:10:23.736Z,100562.41
2023-01-12T06:13:09.643Z,100566.94
2023-01-12T06:15:36.879Z,100560.53
2023-01-12T06:18:03.933Z,100562.84
2023-01-12T06:20:30.877Z,100558.09
2023-01-12T06:23:07.492Z,100558.66
2023-01-12T06:25:34.337Z,100571.31
2023-01-12T06:28:01.381Z,100556.09
2023-01-12T06:30:28.401Z,100564.94
2023-01-12T06:32:55.469Z,100556.91
2023-01-12T06:35:22.526Z,100573.75
2023-01-12T06:37:49.352Z,100564.13
2023-01-12T06:40:16.373Z,100557.50
2023-01-12T06:42:43.440Z,100545.19
2023-01-12T06:45:10.804Z,100551.56
2023-01-12T06:47:49.644Z,100547.97
2023-01-12T06:50:16.937Z,100532.88
2023-01-12T06:52:43.925Z,100569.56
2023-01-12T06:55:10.926Z,100543.56
2023-01-12T06:57:37.984Z,100532.53
2023-01-12T07:00:06.469Z,100540.06
2023-01-12T07:02:33.395Z,100538.78
2023-01-12T07:05:00.346Z,100529.72
2023-01-12T07:07:27.388Z,100533.44
2023-01-12T07:09:54.483Z,100540.41
2023-01-12T07:12:21.752Z,100529.03
2023-01-12T07:14:48.673Z,100532.06
2023-01-12T07:17:15.826Z,100530.06
2023-01-12T07:19:43.488Z,100534.94
2023-01-12T07:22:10.532Z,100531.47
2023-01-12T07:24:37.428Z,100546.22
2023-01-12T07:27:04.685Z,100530.31
2023-01-12T07:29:31.563Z,100524.25
2023-01-12T07:31:58.711Z,100523.19
2023-01-12T07:34:25.751Z,100515.09
2023-01-12T07:36:52.691Z,100516.13
2023-01-12T07:39:19.903Z,100523.19
2023-01-12T07:42:05.135Z,100529.13
2023-01-12T07:44:32.189Z,100509.13
2023-01-12T07:47:01.883Z,100521.78
2023-01-12T07:49:28.719Z,100505.25
2023-01-12T07:51:56.579Z,100506.88
2023-01-12T07:54:24.040Z,100492.56
2023-01-12T07:56:50.955Z,100489.41
2023-01-12T07:59:17.932Z,100493.22
2023-01-12T08:01:45.083Z,100471.59
2023-01-12T08:04:12.056Z,100475.63
2023-01-12T08:06:39.416Z,100487.00
2023-01-12T08:09:06.987Z,100476.66
2023-01-12T08:11:34.522Z,100475.38
2023-01-12T08:14:02.020Z,100475.69
2023-01-12T08:16:40.795Z,100468.81
2023-01-12T08:19:14.575Z,100500.75
2023-01-12T08:21:57.766Z,100465.97
2023-01-12T08:24:32.201Z,100482.50
2023-01-12T08:27:02.183Z,100465.16
2023-01-12T08:29:40.138Z,100477.00
2023-01-12T08:34:44.166Z,100466.13
2023-01-12T08:37:16.127Z,100462.91
2023-01-12T08:39:43.741Z,100451.72
2023-01-12T08:42:11.051Z,100447.50
2023-01-12T08:44:38.737Z,100447.84
2023-01-12T08:47:18.388Z,100446.06
2023-01-12T08:49:46.321Z,100450.44
2023-01-12T08:52:15.164Z,100445.31
2023-01-12T08:54:42.489Z,100441.03
2023-01-12T08:57:09.346Z,100437.13
2023-01-12T08:59:36.980Z,100434.03
2023-01-12T09:02:04.581Z,100441.25
2023-01-12T09:04:31.703Z,100424.75
2023-01-12T09:07:00.208Z,100428.00
2023-01-12T09:09:27.774Z,100420.53
2023-01-12T09:11:55.350Z,100404.59
2023-01-12T09:14:22.485Z,100429.03
2023-01-12T09:16:49.676Z,100408.16
2023-01-12T09:19:16.678Z,100413.50
2023-01-12T09:21:44.808Z,100411.22
2023-01-12T09:24:14.454Z,100413.66
2023-01-12T09:26:44.874Z,100414.47
2023-01-12T09:29:14.659Z,100391.72
2023-01-12T09:31:44.339Z,100391.72
2023-01-12T09:34:11.661Z,100390.72
2023-01-12T09:36:40.098Z,100395.56
2023-01-12T09:39:15.508Z,100394.75
2023-01-12T09:42:09.212Z,100417.81
2023-01-12T09:44:59.225Z,100390.78
2023-01-12T09:47:56.439Z,100397.81
2023-01-12T09:50:48.948Z,100373.22
2023-01-12T09:53:23.643Z,100372.53
2023-01-12T09:56:08.634Z,100370.66
2023-01-12T09:59:18.620Z,100372.66
2023-01-12T10:01:46.262Z,100353.28
2023-01-12T10:04:14.342Z,100352.28
2023-01-12T10:06:41.766Z,100355.56
2023-01-12T10:09:18.217Z,100351.06
2023-01-12T10:12:03.401Z,100358.06
2023-01-12T10:14:33.230Z,100339.84
2023-01-12T10:17:38.541Z,100345.50
2023-01-12T10:20:18.447Z,100330.78
2023-01-12T10:22:50.868Z,100334.06
2023-01-12T10:25:29.881Z,100325.81
2023-01-12T10:28:00.009Z,100324.44
2023-01-12T10:30:31.980Z,100323.69
2023-01-12T10:33:17.038Z,100313.22
2023-01-12T10:36:15.587Z,100313.81
2023-01-12T10:38:59.570Z,100307.13
2023-01-12T10:41:34.632Z,100311.97
2023-01-12T10:44:27.746Z,100311.22
2023-01-12T10:47:11.157Z,100308.50
2023-01-12T10:49:38.302Z,100304.47
2023-01-12T10:52:33.898Z,100298.88
2023-01-12T10:55:00.838Z,100299.66
2023-01-12T10:57:28.206Z,100293.47
2023-01-12T10:59:59.410Z,100304.22
2023-01-12T11:02:29.582Z,100297.72
2023-01-12T11:04:56.548Z,100283.72
2023-01-12T11:07:31.923Z,100278.34
2023-01-12T11:10:27.738Z,100297.38
2023-01-12T11:13:04.345Z,100259.25
2023-01-12T11:15:35.561Z,100269.31
2023-01-12T11:18:11.523Z,100259.81
2023-01-12T11:20:51.508Z,100255.56
2023-01-12T11:23:30.836Z,100250.06
2023-01-12T11:26:01.872Z,100241.63
2023-01-12T11:28:37.001Z,100250.63
2023-01-12T11:31:19.742Z,100224.78
2023-01-12T11:33:47.742Z,100225.25
2023-01-12T11:36:27.617Z,100233.72
2023-01-12T11:39:07.002Z,100216.53
2023-01-12T11:42:04.022Z,100216.19
2023-01-12T11:44:53.679Z,100205.56
2023-01-12T11:47:58.647Z,100194.75
2023-01-12T11:50:34.548Z,100211.97
2023-01-12T11:53:05.121Z,100222.25
2023-01-12T11:55:56.670Z,100220.09
2023-01-12T11:58:37.872Z,100209.91
2023-01-12T12:01:28.882Z,100203.50
2023-01-12T12:04:14.858Z,100196.22
2023-01-12T12:07:31.951Z,100221.25
2023-01-12T12:10:43.206Z,100211.38
2023-01-12T12:13:25.362Z,100209.75
2023-01-12T12:16:39.782Z,100197.00
2023-01-12T12:19:40.144Z,100203.47
2023-01-12T12:22:50.495Z,100194.00
2023-01-12T12:25:28.188Z,100193.00
2023-01-12T12:28:13.655Z,100214.53
2023-01-12T12:30:56.318Z,100192.94
2023-01-12T12:33:58.601Z,100184.41
2023-01-12T12:36:55.511Z,100185.03
2023-01-12T12:39:49.185Z,100188.63
2023-01-12T12:42:54.253Z,100180.69
2023-01-12T12:45:52.571Z,100193.13
2023-01-12T12:48:42.863Z,100175.25
2023-01-12T12:51:11.558Z,100210.34
2023-01-12T12:53:49.610Z,100192.28
2023-01-12T12:56:20.784Z,100203.03
2023-01-12T12:58:49.365Z,100190.75
2023-01-12T13:01:39.715Z,100191.91
2023-01-12T13:04:09.848Z,100191.34
2023-01-12T13:06:50.041Z,100182.84
2023-01-12T13:09:17.249Z,100183.41
2023-01-12T13:11:47.156Z,100181.06
2023-01-12T13:14:21.351Z,100193.22
2023-01-12T13:16:52.706Z,100172.03
2023-01-12T13:19:42.474Z,100193.00
2023-01-12T13:22:41.976Z,100234.25
2023-01-12T13:25:22.242Z,100199.69
2023-01-12T13:28:00.396Z,100211.25
2023-01-12T13:30:30.660Z,100188.75
2023-01-12T13:33:14.603Z,100190.63
2023-01-12T13:35:44.504Z,100182.03
2023-01-12T13:38:43.783Z,100171.31
2023-01-12T13:41:13.652Z,100180.44
2023-01-12T13:44:01.036Z,100182.91
2023-01-12T13:46:36.718Z,100171.03
2023-01-12T13:49:24.245Z,100170.88
2023-01-12T13:52:09.912Z,100173.06
2023-01-12T13:54:51.354Z,100170.38
2023-01-12T13:57:22.660Z,100174.13
2023-01-12T14:00:00.210Z,100174.69
2023-01-12T14:02:31.967Z,100176.28
2023-01-12T14:05:42.574Z,100148.72
2023-01-12T14:08:18.407Z,100177.69
2023-01-12T14:11:14.556Z,100187.03
2023-01-12T14:14:38.031Z,100176.06
2023-01-12T14:17:36.733Z,100171.53
2023-01-12T14:20:13.813Z,100172.88
2023-01-12T14:22:41.047Z,100183.63
2023-01-12T14:25:34.362Z,100166.22
2023-01-12T14:28:01.405Z,100181.72
2023-01-12T14:30:28.957Z,100207.25
2023-01-12T14:32:56.225Z,100184.47
2023-01-12T14:35:25.806Z,100210.47
2023-01-12T14:38:03.721Z,100180.47
2023-01-12T14:40:33.173Z,100166.78
2023-01-12T14:43:20.739Z,100162.50
2023-01-12T14:46:18.711Z,100184.78
2023-01-12T14:49:29.517Z,100166.28
2023-01-12T14:52:00.444Z,100168.97
2023-01-12T14:54:33.789Z,100166.78
2023-01-12T14:57:05.207Z,100175.69
2023-01-12T14:59:42.155Z,100184.84
2023-01-12T15:02:15.357Z,100178.94
2023-01-12T15:04:56.995Z,100177.31
2023-01-12T15:07:28.240Z,100173.31
2023-01-12T15:10:04.066Z,100160.72
2023-01-12T15:12:30.880Z,100175.22
2023-01-12T15:15:52.729Z,100199.13
2023-01-12T15:18:38.969Z,100187.25
2023-01-12T15:21:24.936Z,100190.53
2023-01-12T15:24:10.549Z,100185.94
2023-01-12T15:26:37.520Z,100189.16
2023-01-12T15:29:05.465Z,100176.03
2023-01-12T15:31:37.609Z,100197.78
2023-01-12T15:34:06.144Z,100182.22
2023-01-12T15:36:33.154Z,100168.53
2023-01-12T15:39:00.109Z,100180.59
2023-01-12T15:41:49.162Z,100192.97
2023-01-12T15:44:19.491Z,100194.03
2023-01-12T15:46:47.285Z,100189.22
2023-01-12T15:49:15.469Z,100186.81
2023-01-12T15:51:48.316Z,100187.59
2023-01-12T15:54:19.357Z,100178.53
2023-01-12T15:56:48.039Z,100182.84
2023-01-12T15:59:15.114Z,100180.44
2023-01-12T16:01:46.135Z,100183.94
2023-01-12T16:04:42.013Z,100182.06
2023-01-12T16:07:09.783Z,100182.59
2023-01-12T16:09:36.736Z,100167.28
2023-01-12T16:12:04.138Z,100186.06
2023-01-12T16:14:31.177Z,100177.75
2023-01-12T16:16:58.163Z,100178.84
2023-01-12T16:19:25.257Z,100171.06
2023-01-12T16:21:54.961Z,100174.28
2023-01-12T16:24:27.389Z,100186.63
2023-01-12T16:26:55.717Z,100177.78
2023-01-12T16:29:24.789Z,100178.56
2023-01-12T16:31:53.219Z,100190.66
2023-01-12T16:34:23.738Z,100181.53
2023-01-12T16:36:50.940Z,100194.16
2023-01-12T16:39:18.468Z,100175.09
2023-01-12T16:41:45.667Z,100177.53
2023-01-12T16:44:12.526Z,100173.78
2023-01-12T16:46:39.586Z,100194.44
2023-01-12T16:49:06.499Z,100182.09
2023-01-12T16:51:35.030Z,100187.75
2023-01-12T16:54:04.546Z,100191.50
2023-01-12T16:56:31.858Z,100183.72
2023-01-12T16:58:59.322Z,100186.94
2023-01-12T17:01:26.690Z,100183.72
2023-01-12T17:03:57.633Z,100171.63
2023-01-12T17:06:27.635Z,100193.94
2023-01-12T17:08:55.880Z,100190.72
2023-01-12T17:11:27.833Z,100176.75
2023-01-12T17:13:56.941Z,100182.13
2023-01-12T17:16:28.029Z,100186.97
2023-01-12T17:18:55.779Z,100175.41
2023-01-12T17:21:23.224Z,100188.06
2023-01-12T17:23:52.362Z,100182.94
2023-01-12T17:26:20.732Z,100180.53
2023-01-12T17:28:49.113Z,100184.81
2023-01-12T17:31:20.705Z,100193.69
2023-01-12T17:33:48.283Z,100181.09
2023-01-12T17:36:15.628Z,100173.03
2023-01-12T17:38:43.008Z,100185.91
2023-01-12T17:41:33.407Z,100187.00
2023-01-12T17:44:05.497Z,100185.91
2023-01-12T17:46:34.538Z,100190.75
2023-01-12T17:49:04.959Z,100174.09
2023-01-12T17:51:33.455Z,100189.16
2023-01-12T17:54:02.327Z,100170.09
2023-01-12T17:56:32.900Z,100171.97
2023-01-12T17:59:00.499Z,100183.25
2023-01-12T18:01:30.377Z,100169.56
2023-01-12T18:03:59.436Z,100181.38
2023-01-12T18:06:27.609Z,100172.53
2023-01-12T18:08:56.676Z,100166.09
2023-01-12T18:11:24.574Z,100169.06
2023-01-12T18:13:51.832Z,100165.56
2023-01-12T18:16:19.223Z,100182.00
2023-01-12T18:18:46.732Z,100154.03
2023-01-12T18:21:18.331Z,100179.00
2023-01-12T18:23:45.605Z,100173.13
2023-01-12T18:26:16.764Z,100178.72
2023-01-12T18:28:44.180Z,100171.50
2023-01-12T18:31:19.661Z,100172.06
2023-01-12T18:33:48.765Z,100171.00
2023-01-12T18:36:23.077Z,100160.25
2023-01-12T18:38:51.699Z,100150.59
2023-01-12T18:41:38.614Z,100154.34
2023-01-12T18:44:06.712Z,100150.59
2023-01-12T18:47:02.337Z,100156.75
2023-01-12T18:49:33.214Z,100148.97
2023-01-12T18:52:20.183Z,100153.28
2023-01-12T18:54:48.167Z,100149.50
2023-01-12T18:57:24.285Z,100144.94
2023-01-12T18:59:56.152Z,100149.25
2023-01-12T19:02:23.794Z,100143.34
2023-01-12T19:04:50.743Z,100135.84
2023-01-12T19:07:34.719Z,100136.38
2023-01-12T19:10:01.859Z,100136.91
2023-01-12T19:12:31.067Z,100137.72
2023-01-12T19:15:16.713Z,100153.28
2023-01-12T19:17:43.718Z,100143.09
2023-01-12T19:20:16.835Z,100143.63
2023-01-12T19:23:02.369Z,100146.59
2023-01-12T19:25:49.050Z,100141.75
2023-01-12T19:28:35.365Z,100129.13
2023-01-12T19:31:05.964Z,100128.31
2023-01-12T19:33:33.551Z,100126.44
2023-01-12T19:36:10.854Z,100124.28
2023-01-12T19:38:39.347Z,100133.69
2023-01-12T19:41:14.145Z,100121.31
2023-01-12T19:43:45.119Z,100136.63
2023-01-12T19:46:13.263Z,100132.88
2023-01-12T19:48:40.233Z,100126.16
2023-01-12T19:51:11.092Z,100121.59
2023-01-12T19:53:40.252Z,100132.06
2023-01-12T19:56:12.007Z,100152.75
2023-01-12T19:58:39.228Z,100124.81
2023-01-12T20:01:06.707Z,100136.84
2023-01-12T20:03:34.717Z,100120.16
2023-01-12T20:06:06.751Z,100135.47
2023-01-12T20:08:33.670Z,100128.97
2023-01-12T20:11:04.733Z,100130.53
2023-01-12T20:13:32.597Z,100126.16
2023-01-12T20:15:59.846Z,100112.44
2023-01-12T20:18:29.177Z,100125.00
2023-01-12T20:20:58.977Z,100113.44
2023-01-12T20:23:26.107Z,100132.13
2023-01-12T20:25:53.352Z,100120.59
2023-01-12T20:28:20.228Z,100124.00
2023-01-12T20:30:47.219Z,100122.81
2023-01-12T20:33:14.592Z,100128.97
2023-01-12T20:35:46.890Z,100118.50
2023-01-12T20:38:15.644Z,100124.81
2023-01-12T20:40:45.269Z,100122.69
2023-01-12T20:43:12.853Z,100109.50
2023-01-12T20:45:42.093Z,100121.28
2023-01-12T20:48:12.502Z,100119.09
2023-01-12T20:50:45.524Z,100115.84
2023-01-12T20:53:14.194Z,100120.66
2023-01-12T20:55:50.274Z,100112.88
2023-01-12T20:58:18.787Z,100105.91
2023-01-12T21:00:46.160Z,100115.81
2023-01-12T21:03:13.538Z,100108.84
2023-01-12T21:05:42.905Z,100111.72
2023-01-12T21:08:10.724Z,100102.88
2023-01-12T21:10:39.712Z,100114.41
2023-01-12T21:13:07.903Z,100113.31
2023-01-12T21:15:34.873Z,100109.53
2023-01-12T21:18:01.733Z,100103.66
2023-01-12T21:20:29.064Z,100107.09
2023-01-12T21:22:55.968Z,100103.38
2023-01-12T21:25:26.030Z,100088.91
2023-01-12T21:27:53.093Z,100115.94
2023-01-12T21:30:20.285Z,100090.94
2023-01-12T21:32:48.800Z,100124.22
2023-01-12T21:35:16.233Z,100098.47
2023-01-12T21:37:43.288Z,100100.59
2023-01-12T21:40:11.260Z,100097.72
2023-01-12T21:42:56.815Z,100108.66
2023-01-12T21:45:25.522Z,100087.75
2023-01-12T21:47:52.768Z,100101.66
2023-01-12T21:50:20.058Z,100112.63
2023-01-12T21:52:48.067Z,100096.34
2023-01-12T21:55:15.181Z,100101.16
2023-01-12T21:57:43.844Z,100097.66
2023-01-12T22:00:11.720Z,100100.63
2023-01-12T22:02:42.898Z,100091.00
2023-01-12T22:05:14.012Z,100093.66
2023-01-12T22:07:41.282Z,100089.88
2023-01-12T22:10:30.236Z,100082.44
2023-01-12T22:13:02.399Z,100083.97
2023-01-12T22:15:30.621Z,100088.28
2023-01-12T22:17:57.896Z,100071.41
2023-01-12T22:20:27.749Z,100072.22
2023-01-12T22:22:55.658Z,100075.44
2023-01-12T22:25:23.049Z,100086.41
2023-01-12T22:27:50.151Z,100062.28
2023-01-12T22:30:21.147Z,100074.38
2023-01-12T22:32:48.674Z,100075.66
2023-01-12T22:35:15.963Z,100072.22
2023-01-12T22:37:43.002Z,100056.41
2023-01-12T22:40:12.360Z,100068.47
2023-01-12T22:42:57.636Z,100059.88
2023-01-12T22:45:24.707Z,100053.19
2023-01-12T22:48:00.682Z,100055.59
2023-01-12T22:50:27.574Z,100059.88
2023-01-12T22:52:56.274Z,100048.88
2023-01-12T22:55:25.447Z,100049.19
2023-01-12T22:57:52.437Z,100052.91
2023-01-12T23:00:20.949Z,100057.00
2023-01-12T23:02:59.931Z,100038.25
2023-01-12T23:05:33.289Z,100048.72
2023-01-12T23:08:00.312Z,100046.53
2023-01-12T23:10:27.948Z,100041.44
2023-01-12T23:13:13.946Z,100039.28
2023-01-12T23:15:57.000Z,100046.28
2023-01-12T23:18:28.648Z,100028.88
2023-01-12T23:21:15.649Z,100038.81
2023-01-12T23:23:48.774Z,100022.16
2023-01-12T23:26:22.996Z,100017.31
2023-01-12T23:28:53.406Z,100013.88
2023-01-12T23:31:23.639Z,100028.34
2023-01-12T23:33:51.759Z,100044.69
2023-01-12T23:36:22.607Z,100026.75
2023-01-12T23:38:55.231Z,100028.34
2023-01-12T23:41:25.170Z,100035.63
2023-01-12T23:43:56.358Z,100025.94
2023-01-12T23:46:24.465Z,100027.59
2023-01-12T23:48:54.484Z,100021.16
2023-01-12T23:51:24.370Z,100019.25
2023-01-12T23:54:00.248Z,100011.28
2023-01-12T23:56:30.979Z,100002.44
2023-01-12T23:58:58.392Z,100002.41
